Time;durP1;ratioP1;P1;durP2;ratioP2;P2;SDS_P1;SDS_P2;PMS_P1;PMS_P2;Temp;Humidity;BMP_temperature;BMP_pressure;BME280_temperature;BME280_humidity;BME280_pressure;Samples;Min_cycle;Max_cycle;Signal;HPM_P1;HPM_P2
2022/11/14 00:00:13;;;;;;;21.92;19.73;;;3.90;99.90;;;;;;5969269;23;20553;-74
2022/11/14 00:02:41;;;;;;;22.77;20.38;;;3.90;99.90;;;;;;5976363;23;20215;-74
2022/11/14 00:05:11;;;;;;;22.15;19.95;;;3.80;99.90;;;;;;5973074;23;20198;-74
2022/11/14 00:07:38;;;;;;;21.15;18.67;;;3.70;99.90;;;;;;5978348;23;20228;-74
2022/11/14 00:10:06;;;;;;;20.70;18.70;;;3.80;99.90;;;;;;5973744;23;20217;-74
2022/11/14 00:12:33;;;;;;;21.30;19.20;;;3.70;99.90;;;;;;5949502;24;20222;-74
2022/11/14 00:15:00;;;;;;;21.13;18.98;;;3.70;99.90;;;;;;5949798;23;20618;-74
2022/11/14 00:17:27;;;;;;;20.20;18.10;;;3.70;99.90;;;;;;5951462;23;20202;-74
2022/11/14 00:19:55;;;;;;;23.85;20.17;;;3.60;99.90;;;;;;5956516;23;20249;-74
2022/11/14 00:22:23;;;;;;;20.63;18.63;;;3.50;99.90;;;;;;5972841;23;20249;-74
2022/11/14 00:24:50;;;;;;;23.50;20.85;;;3.50;99.90;;;;;;5975700;23;20233;-74
2022/11/14 00:27:17;;;;;;;20.77;18.67;;;3.50;99.90;;;;;;5975382;23;20220;-74
2022/11/14 00:29:45;;;;;;;22.42;20.05;;;3.50;99.90;;;;;;5978354;23;20606;-74
2022/11/14 00:32:12;;;;;;;24.88;22.17;;;3.50;99.90;;;;;;5979299;23;20425;-73
2022/11/14 00:34:39;;;;;;;24.55;20.42;;;3.40;99.90;;;;;;5978896;23;20199;-74
2022/11/14 00:37:06;;;;;;;21.55;19.25;;;3.50;99.90;;;;;;5962136;23;20350;-74
2022/11/14 00:39:35;;;;;;;20.65;18.42;;;3.50;99.90;;;;;;5998885;23;20248;-74
2022/11/14 00:42:02;;;;;;;23.60;19.50;;;3.50;99.90;;;;;;5977560;23;20218;-74
2022/11/14 00:44:29;;;;;;;19.70;17.70;;;3.60;99.90;;;;;;5974739;23;20193;-74
2022/11/14 00:46:56;;;;;;;19.33;17.33;;;3.60;99.90;;;;;;5956072;23;20196;-74
2022/11/14 00:49:24;;;;;;;19.65;17.48;;;3.60;99.90;;;;;;5967143;23;20198;-74
2022/11/14 00:51:51;;;;;;;18.17;16.48;;;3.60;99.90;;;;;;5966423;23;20204;-74
2022/11/14 00:54:18;;;;;;;19.63;17.63;;;3.60;99.90;;;;;;6003327;23;20284;-74
2022/11/14 00:56:47;;;;;;;18.63;16.70;;;3.70;99.90;;;;;;5978051;24;20209;-74
2022/11/14 00:59:13;;;;;;;20.75;18.63;;;3.80;99.90;;;;;;5978785;24;20253;-74
2022/11/14 01:01:41;;;;;;;19.42;17.42;;;3.70;99.90;;;;;;5967230;23;20290;-74
2022/11/14 01:04:08;;;;;;;18.45;16.55;;;3.80;99.90;;;;;;5964234;23;20227;-74
2022/11/14 01:06:35;;;;;;;17.88;16.17;;;3.80;99.90;;;;;;5974139;23;20199;-74
2022/11/14 01:09:02;;;;;;;20.88;18.38;;;3.80;99.90;;;;;;5976213;23;20199;-74
2022/11/14 01:11:29;;;;;;;19.50;17.50;;;3.90;99.90;;;;;;5974061;23;20199;-74
2022/11/14 01:13:59;;;;;;;18.38;16.45;;;3.90;99.90;;;;;;5976667;24;20218;-74
2022/11/14 01:16:26;;;;;;;17.90;16.05;;;3.90;99.90;;;;;;5976060;23;20201;-74
2022/11/14 01:18:53;;;;;;;18.85;17.05;;;3.90;99.90;;;;;;5952502;23;20236;-73
2022/11/14 01:21:21;;;;;;;18.65;16.75;;;3.90;99.90;;;;;;5969211;23;20202;-74
2022/11/14 01:23:48;;;;;;;18.27;16.48;;;3.90;99.90;;;;;;6003476;23;20217;-74
2022/11/14 01:26:15;;;;;;;18.60;16.73;;;3.90;99.90;;;;;;5962914;23;20223;-73
2022/11/14 01:28:42;;;;;;;16.95;15.18;;;3.90;99.90;;;;;;5952346;23;20202;-74
2022/11/14 01:31:17;;;;;;;17.02;15.23;;;3.90;99.90;;;;;;5952395;23;20200;-74
2022/11/14 01:33:44;;;;;;;18.48;16.60;;;3.90;99.90;;;;;;5950624;24;20261;-74
2022/11/14 01:36:12;;;;;;;18.50;16.52;;;3.90;99.90;;;;;;5954462;23;20658;-74
2022/11/14 01:38:39;;;;;;;19.23;16.10;;;3.80;99.90;;;;;;5973131;23;20401;-74
2022/11/14 01:41:07;;;;;;;18.02;16.23;;;3.80;99.90;;;;;;5977142;23;20727;-74
2022/11/14 01:43:36;;;;;;;18.30;16.15;;;3.80;99.90;;;;;;5956006;23;20338;-74
2022/11/14 01:46:05;;;;;;;19.33;17.33;;;3.80;99.90;;;;;;5972751;23;20198;-74
2022/11/14 01:48:39;;;;;;;17.98;16.08;;;3.70;99.90;;;;;;5978073;24;20222;-74
2022/11/14 01:51:19;;;;;;;18.95;16.95;;;3.70;99.90;;;;;;5954204;23;20688;-74
2022/11/14 01:53:50;;;;;;;18.42;16.55;;;3.70;99.90;;;;;;5975375;23;20649;-74
2022/11/14 01:56:21;;;;;;;18.23;16.30;;;3.70;99.90;;;;;;5974180;23;20368;-74
2022/11/14 01:58:52;;;;;;;18.50;16.65;;;3.70;99.90;;;;;;5975339;23;20273;-74
2022/11/14 02:01:20;;;;;;;20.75;18.50;;;3.70;99.90;;;;;;5956939;23;20201;-74
2022/11/14 02:03:51;;;;;;;19.00;16.98;;;3.70;99.90;;;;;;5955889;23;20217;-73
2022/11/14 02:06:25;;;;;;;21.65;19.23;;;3.70;99.90;;;;;;5976572;23;20258;-74
2022/11/14 02:08:53;;;;;;;21.08;18.77;;;3.60;99.90;;;;;;5961453;23;20283;-74
2022/11/14 02:11:21;;;;;;;21.08;17.73;;;3.60;99.90;;;;;;5975804;23;20864;-74
2022/11/14 02:13:48;;;;;;;20.60;18.25;;;3.50;99.90;;;;;;5961151;23;20260;-73
2022/11/14 02:16:15;;;;;;;21.10;18.90;;;3.60;99.90;;;;;;5974608;23;20208;-74
2022/11/14 02:18:42;;;;;;;21.17;18.90;;;3.50;99.90;;;;;;5977616;23;20198;-74
2022/11/14 02:21:11;;;;;;;20.65;18.45;;;3.50;99.90;;;;;;5985402;23;20239;-74
2022/11/14 02:23:38;;;;;;;23.10;20.25;;;3.40;99.90;;;;;;5996273;23;20708;-74
2022/11/14 02:26:05;;;;;;;27.20;21.02;;;3.40;99.90;;;;;;5960676;23;20198;-74
2022/11/14 02:28:33;;;;;;;20.60;18.42;;;3.40;99.90;;;;;;5950146;23;20230;-74
2022/11/14 02:31:00;;;;;;;22.50;19.85;;;3.40;99.90;;;;;;5974388;23;20722;-74
2022/11/14 02:33:27;;;;;;;21.42;18.88;;;3.40;99.90;;;;;;5976572;24;20271;-74
2022/11/14 02:35:54;;;;;;;24.52;20.52;;;3.30;99.90;;;;;;5966398;23;20231;-74
2022/11/14 02:38:23;;;;;;;25.60;19.85;;;3.30;99.90;;;;;;6003994;23;20223;-74
2022/11/14 02:40:51;;;;;;;22.33;19.00;;;3.30;99.90;;;;;;5960064;23;20202;-74
2022/11/14 02:43:18;;;;;;;19.00;16.88;;;3.20;99.90;;;;;;5975742;23;20224;-74
2022/11/14 02:45:45;;;;;;;19.02;17.02;;;3.20;99.90;;;;;;5976325;23;20200;-73
2022/11/14 02:48:12;;;;;;;21.27;18.98;;;3.10;99.90;;;;;;5961146;23;20280;-74
2022/11/14 02:50:40;;;;;;;20.42;18.35;;;3.10;99.90;;;;;;5976098;23;20740;-73
2022/11/14 02:53:08;;;;;;;28.40;18.20;;;3.10;99.90;;;;;;5975817;23;20250;-74
2022/11/14 02:55:36;;;;;;;30.55;18.92;;;2.90;99.90;;;;;;5977101;23;20230;-74
2022/11/14 02:58:03;;;;;;;105.47;24.33;;;2.80;99.90;;;;;;5986516;23;20678;-74
2022/11/14 03:00:30;;;;;;;21.48;17.80;;;2.80;99.90;;;;;;5960721;23;20206;-73
2022/11/14 03:02:58;;;;;;;21.27;18.13;;;2.70;99.90;;;;;;5966864;23;20229;-74
2022/11/14 03:05:25;;;;;;;21.60;18.60;;;2.60;99.90;;;;;;5956236;23;20223;-74
2022/11/14 03:07:53;;;;;;;20.98;18.55;;;2.50;99.90;;;;;;5963504;23;20712;-74
2022/11/14 03:10:21;;;;;;;21.15;18.42;;;2.40;99.90;;;;;;5964954;23;20194;-74
2022/11/14 03:12:53;;;;;;;22.52;19.17;;;2.30;99.90;;;;;;5962794;23;20259;-73
2022/11/14 03:15:21;;;;;;;22.02;18.23;;;2.20;99.90;;;;;;5977569;24;20602;-73
2022/11/14 03:17:48;;;;;;;22.02;19.73;;;2.10;99.90;;;;;;5983932;23;20275;-73
2022/11/14 03:20:15;;;;;;;24.98;20.40;;;2.10;99.90;;;;;;5976084;24;20222;-73
2022/11/14 03:22:43;;;;;;;24.42;21.05;;;2.10;99.90;;;;;;5977493;23;20316;-73
2022/11/14 03:25:10;;;;;;;21.98;19.40;;;2.10;99.90;;;;;;5967908;23;20239;-73
2022/11/14 03:27:37;;;;;;;24.25;20.33;;;2.00;99.90;;;;;;5952076;23;20650;-73
2022/11/14 03:30:07;;;;;;;23.75;19.85;;;2.00;99.90;;;;;;5950146;24;20250;-74
2022/11/14 03:32:34;;;;;;;23.60;20.55;;;2.00;99.90;;;;;;5960329;23;20273;-74
2022/11/14 03:35:01;;;;;;;23.17;20.25;;;2.00;99.90;;;;;;5976145;24;20532;-73
2022/11/14 03:37:29;;;;;;;29.45;22.55;;;2.00;99.90;;;;;;5976662;23;20209;-73
2022/11/14 03:39:56;;;;;;;27.88;21.05;;;2.10;99.90;;;;;;5961396;23;20202;-73
2022/11/14 03:42:23;;;;;;;27.85;21.65;;;2.10;99.90;;;;;;5976723;23;20208;-73
2022/11/14 03:44:50;;;;;;;24.33;21.17;;;2.10;99.90;;;;;;5977611;24;20210;-73
2022/11/14 03:47:18;;;;;;;24.00;20.42;;;2.10;99.90;;;;;;5976175;23;20204;-73
2022/11/14 03:49:46;;;;;;;27.42;20.77;;;2.20;99.90;;;;;;5975938;24;20214;-73
2022/11/14 03:52:15;;;;;;;29.33;23.63;;;2.20;99.90;;;;;;5965348;23;20280;-73
2022/11/14 03:54:42;;;;;;;25.58;20.55;;;2.20;99.90;;;;;;5976500;23;20590;-73
2022/11/14 03:57:10;;;;;;;31.08;25.27;;;2.30;99.90;;;;;;5966223;23;20199;-73
2022/11/14 03:59:37;;;;;;;29.27;23.38;;;2.30;99.90;;;;;;5977165;24;20562;-73
2022/11/14 04:02:04;;;;;;;24.65;20.73;;;2.30;99.90;;;;;;5961645;23;20197;-73
2022/11/14 04:04:33;;;;;;;27.20;20.90;;;2.30;99.90;;;;;;5949433;24;20288;-73
2022/11/14 04:07:00;;;;;;;23.88;20.00;;;2.30;99.90;;;;;;5963759;23;20695;-73
2022/11/14 04:09:29;;;;;;;24.20;20.00;;;2.20;99.90;;;;;;5977100;23;20323;-73
2022/11/14 04:11:56;;;;;;;24.13;20.40;;;2.20;99.90;;;;;;5959989;23;20209;-73
2022/11/14 04:14:23;;;;;;;25.35;20.63;;;2.20;99.90;;;;;;6005552;23;20193;-73
2022/11/14 04:16:50;;;;;;;23.13;18.98;;;2.20;99.90;;;;;;5984298;23;20203;-73
2022/11/14 04:19:17;;;;;;;23.05;19.58;;;2.10;99.90;;;;;;5955720;23;20656;-73
2022/11/14 04:21:46;;;;;;;26.65;21.92;;;2.10;99.90;;;;;;5976830;23;20211;-74
2022/11/14 04:24:13;;;;;;;29.20;22.95;;;2.20;99.90;;;;;;5975365;23;20305;-74
2022/11/14 04:26:41;;;;;;;33.67;24.73;;;2.10;99.90;;;;;;5966838;23;20229;-73
2022/11/14 04:29:08;;;;;;;25.40;22.10;;;2.20;99.90;;;;;;5977133;23;20274;-74
2022/11/14 04:31:35;;;;;;;23.27;20.20;;;2.10;99.90;;;;;;5975987;23;20252;-74
2022/11/14 04:34:03;;;;;;;27.80;21.92;;;2.10;99.90;;;;;;5977233;24;20726;-73
2022/11/14 04:36:30;;;;;;;27.65;21.92;;;2.10;99.90;;;;;;5959533;23;20199;-73
2022/11/14 04:38:58;;;;;;;27.98;21.83;;;2.10;99.90;;;;;;5969866;23;20199;-73
2022/11/14 04:41:25;;;;;;;25.75;21.33;;;2.10;99.90;;;;;;5963907;23;20228;-74
2022/11/14 04:43:53;;;;;;;28.52;21.95;;;2.10;99.90;;;;;;5965416;23;20215;-73
2022/11/14 04:46:20;;;;;;;29.98;21.50;;;2.00;99.90;;;;;;5964813;23;20195;-73
2022/11/14 04:48:47;;;;;;;30.90;23.10;;;2.10;99.90;;;;;;5977115;24;20541;-73
2022/11/14 04:51:15;;;;;;;28.67;23.00;;;2.10;99.90;;;;;;5948920;24;20199;-73
2022/11/14 04:53:43;;;;;;;27.17;22.52;;;2.10;99.90;;;;;;5955789;23;20235;-73
2022/11/14 04:56:11;;;;;;;26.20;23.08;;;2.10;99.90;;;;;;5965361;23;20204;-73
2022/11/14 04:58:39;;;;;;;28.08;22.58;;;2.20;99.90;;;;;;5948938;23;20278;-73
2022/11/14 05:01:10;;;;;;;24.77;20.90;;;2.20;99.90;;;;;;5951641;23;20201;-73
2022/11/14 05:03:37;;;;;;;28.35;22.45;;;2.20;99.90;;;;;;5950719;24;20212;-73
2022/11/14 05:06:05;;;;;;;26.33;22.80;;;2.20;99.90;;;;;;5959603;23;20230;-74
2022/11/14 05:08:33;;;;;;;24.25;20.48;;;2.20;99.90;;;;;;5969832;23;20231;-73
2022/11/14 05:11:00;;;;;;;25.55;20.58;;;2.10;99.90;;;;;;5967589;23;20219;-73
2022/11/14 05:13:29;;;;;;;22.02;19.80;;;2.10;99.90;;;;;;5980187;23;20194;-73
2022/11/14 05:15:58;;;;;;;24.77;20.23;;;2.10;99.90;;;;;;5983714;23;20211;-73
2022/11/14 05:18:25;;;;;;;23.45;20.92;;;2.10;99.90;;;;;;5960875;23;20695;-73
2022/11/14 05:20:53;;;;;;;22.88;19.48;;;2.10;99.90;;;;;;5972264;23;20234;-76
2022/11/14 05:23:23;;;;;;;30.05;23.15;;;2.10;99.90;;;;;;5958456;23;20231;-77
2022/11/14 05:25:59;;;;;;;22.05;18.08;;;2.10;99.90;;;;;;5964967;23;20197;-76
2022/11/14 05:28:27;;;;;;;26.15;21.50;;;2.10;99.90;;;;;;5968987;24;20717;-78
2022/11/14 05:31:01;;;;;;;20.75;17.90;;;2.00;99.90;;;;;;5969353;23;20256;-77
2022/11/14 05:33:28;;;;;;;20.92;18.65;;;2.00;99.90;;;;;;5967495;23;20258;-78
2022/11/14 05:35:55;;;;;;;21.45;18.30;;;2.00;99.90;;;;;;5965351;23;20202;-80
2022/11/14 05:38:23;;;;;;;20.45;18.27;;;2.00;99.90;;;;;;5982233;23;20182;-80
2022/11/14 05:40:51;;;;;;;22.20;17.25;;;2.00;99.90;;;;;;5987837;23;20185;-79
2022/11/14 05:43:19;;;;;;;19.08;17.00;;;2.00;99.90;;;;;;5953336;23;20281;-76
2022/11/14 05:45:46;;;;;;;18.00;16.20;;;2.00;99.90;;;;;;5935074;23;20222;-78
2022/11/14 05:48:15;;;;;;;17.75;15.95;;;2.10;99.90;;;;;;5954358;23;20191;-78
2022/11/14 05:50:43;;;;;;;19.80;17.67;;;2.20;99.90;;;;;;5957906;23;20271;-78
2022/11/14 05:53:10;;;;;;;17.98;15.85;;;2.10;99.90;;;;;;5971312;23;20669;-78
2022/11/14 05:55:39;;;;;;;18.85;16.30;;;2.10;99.90;;;;;;5960639;23;21417;-78
2022/11/14 05:58:06;;;;;;;20.10;17.92;;;2.20;99.90;;;;;;5962039;23;20295;-78
2022/11/14 06:00:35;;;;;;;19.40;17.23;;;2.20;99.90;;;;;;5980692;23;20229;-78
2022/11/14 06:03:02;;;;;;;18.50;16.33;;;2.10;99.90;;;;;;5961313;23;20196;-78
2022/11/14 06:05:31;;;;;;;20.30;18.00;;;2.10;99.90;;;;;;5955472;23;20241;-78
2022/11/14 06:07:59;;;;;;;18.85;15.90;;;2.20;99.90;;;;;;5964776;23;20196;-77
2022/11/14 06:10:27;;;;;;;18.45;16.48;;;2.20;99.90;;;;;;5975759;23;20219;-78
2022/11/14 06:12:54;;;;;;;21.23;17.05;;;2.20;99.90;;;;;;5957229;23;20545;-78
2022/11/14 06:15:21;;;;;;;19.52;16.45;;;2.30;99.90;;;;;;5961236;23;20189;-74
2022/11/14 06:17:49;;;;;;;18.55;15.85;;;2.30;99.90;;;;;;5976603;23;20193;-74
2022/11/14 06:20:17;;;;;;;17.33;15.45;;;2.30;99.90;;;;;;5958251;23;20248;-75
2022/11/14 06:22:46;;;;;;;18.25;16.30;;;2.40;99.90;;;;;;5971189;23;20193;-74
2022/11/14 06:25:13;;;;;;;18.17;15.45;;;2.40;99.90;;;;;;5970330;23;20226;-75
2022/11/14 06:27:40;;;;;;;19.05;16.83;;;2.50;99.90;;;;;;5960459;23;20249;-75
2022/11/14 06:30:09;;;;;;;17.63;15.82;;;2.60;99.90;;;;;;5969540;23;20199;-74
2022/11/14 06:32:36;;;;;;;19.02;16.85;;;2.70;99.90;;;;;;5959518;23;20605;-74
2022/11/14 06:35:04;;;;;;;15.93;14.32;;;2.70;99.90;;;;;;5976880;23;20192;-74
2022/11/14 06:37:31;;;;;;;17.00;15.30;;;2.80;99.90;;;;;;5968163;23;20272;-74
2022/11/14 06:40:01;;;;;;;16.77;14.98;;;2.80;99.90;;;;;;5953164;23;20239;-74
2022/11/14 06:42:29;;;;;;;17.63;15.82;;;2.90;99.90;;;;;;5954607;23;20209;-74
2022/11/14 06:44:57;;;;;;;16.92;15.23;;;2.90;99.90;;;;;;5955951;23;20220;-74
2022/11/14 06:47:24;;;;;;;15.63;14.10;;;3.00;99.90;;;;;;5949202;23;20194;-74
2022/11/14 06:49:51;;;;;;;15.32;13.80;;;3.00;99.90;;;;;;5975036;23;20612;-74
2022/11/14 06:52:18;;;;;;;15.27;13.77;;;3.00;99.90;;;;;;5954528;23;20548;-74
2022/11/14 06:54:47;;;;;;;16.95;15.25;;;3.00;99.90;;;;;;5956967;23;20200;-73
2022/11/14 06:57:15;;;;;;;15.30;13.85;;;3.10;99.90;;;;;;5953745;23;20209;-74
2022/11/14 06:59:43;;;;;;;15.82;14.27;;;3.10;99.90;;;;;;5951385;23;20449;-75
2022/11/14 07:02:12;;;;;;;15.13;13.57;;;3.10;99.90;;;;;;5955067;23;20201;-73
2022/11/14 07:04:39;;;;;;;14.43;12.35;;;3.10;99.90;;;;;;5958055;23;20209;-74
2022/11/14 07:07:06;;;;;;;14.00;12.68;;;3.20;99.90;;;;;;5961356;23;20188;-74
2022/11/14 07:09:33;;;;;;;14.60;13.07;;;3.20;99.90;;;;;;5966464;23;20202;-74
2022/11/14 07:12:00;;;;;;;15.40;13.80;;;3.20;99.90;;;;;;5962870;23;20285;-73
2022/11/14 07:14:29;;;;;;;15.10;13.57;;;3.30;99.90;;;;;;5960532;23;20191;-74
2022/11/14 07:16:58;;;;;;;15.00;13.50;;;3.30;99.90;;;;;;5953557;23;20204;-74
2022/11/14 07:19:25;;;;;;;14.73;13.23;;;3.30;99.90;;;;;;5956033;23;20656;-74
2022/11/14 07:21:52;;;;;;;15.48;13.98;;;3.30;99.90;;;;;;5957795;23;20246;-75
2022/11/14 07:24:19;;;;;;;14.63;13.32;;;3.30;99.90;;;;;;5957619;23;20214;-74
2022/11/14 07:26:46;;;;;;;15.52;14.02;;;3.40;99.90;;;;;;5959718;23;20187;-74
2022/11/14 07:29:13;;;;;;;16.45;14.43;;;3.40;99.90;;;;;;5948006;23;20195;-75
2022/11/14 07:31:42;;;;;;;16.55;14.80;;;3.50;99.90;;;;;;5950625;23;20225;-74
2022/11/14 07:34:10;;;;;;;15.80;14.20;;;3.60;99.90;;;;;;5959252;23;20198;-73
2022/11/14 07:36:37;;;;;;;15.75;14.25;;;3.60;99.90;;;;;;5959154;23;20192;-74
2022/11/14 07:39:05;;;;;;;15.30;13.80;;;3.70;99.90;;;;;;5950724;23;20192;-74
2022/11/14 07:41:32;;;;;;;15.65;14.15;;;3.80;99.90;;;;;;5970603;23;20661;-74
2022/11/14 07:43:59;;;;;;;13.55;12.25;;;3.80;99.90;;;;;;5965068;23;20195;-74
2022/11/14 07:46:27;;;;;;;14.32;12.85;;;3.80;99.90;;;;;;5953823;23;20278;-74
2022/11/14 07:48:56;;;;;;;14.70;13.30;;;3.90;99.90;;;;;;5956467;23;20297;-74
2022/11/14 07:51:24;;;;;;;14.68;13.18;;;3.90;99.90;;;;;;5958508;23;20226;-75
2022/11/14 07:53:52;;;;;;;14.00;12.70;;;4.00;99.90;;;;;;5952180;23;20199;-74
2022/11/14 07:56:21;;;;;;;15.00;13.60;;;4.10;99.90;;;;;;5954509;23;20642;-75
2022/11/14 07:58:49;;;;;;;14.02;12.73;;;4.10;99.90;;;;;;5962365;23;20194;-74
2022/11/14 08:01:17;;;;;;;14.30;13.00;;;4.10;99.90;;;;;;5955344;23;20192;-74
2022/11/14 08:03:45;;;;;;;15.02;13.63;;;4.10;99.90;;;;;;5948035;23;20195;-75
2022/11/14 08:06:15;;;;;;;12.70;11.50;;;4.20;99.90;;;;;;5957201;23;20222;-75
2022/11/14 08:08:43;;;;;;;13.70;12.40;;;4.20;99.90;;;;;;5954330;23;20187;-75
2022/11/14 08:11:10;;;;;;;13.63;12.32;;;4.20;99.90;;;;;;5955170;23;20716;-75
2022/11/14 08:13:38;;;;;;;14.40;13.00;;;4.30;99.90;;;;;;5956662;23;20535;-74
2022/11/14 08:16:06;;;;;;;14.32;12.82;;;4.30;99.90;;;;;;5958353;23;20195;-74
2022/11/14 08:18:33;;;;;;;14.85;13.35;;;4.30;99.90;;;;;;5943639;23;20886;-74
2022/11/14 08:21:04;;;;;;;14.70;13.15;;;4.30;99.90;;;;;;5945368;23;20196;-74
2022/11/14 08:23:33;;;;;;;16.15;14.40;;;4.40;99.90;;;;;;5949411;23;20219;-74
2022/11/14 08:26:00;;;;;;;15.43;13.57;;;4.40;99.90;;;;;;5947237;23;21152;-74
2022/11/14 08:28:28;;;;;;;16.30;14.60;;;4.40;99.90;;;;;;5948300;23;20210;-74
2022/11/14 08:31:00;;;;;;;15.68;14.07;;;4.40;99.90;;;;;;5951521;23;20192;-74
2022/11/14 08:33:27;;;;;;;15.70;14.10;;;4.40;99.90;;;;;;5925503;24;20261;-74
2022/11/14 08:35:54;;;;;;;14.30;12.80;;;4.40;99.90;;;;;;5949874;23;20195;-74
2022/11/14 08:38:22;;;;;;;15.52;13.95;;;4.40;99.90;;;;;;5966190;23;20195;-74
2022/11/14 08:40:51;;;;;;;17.38;15.57;;;4.40;99.90;;;;;;5953771;23;20619;-73
2022/11/14 08:43:18;;;;;;;18.35;15.75;;;4.40;99.90;;;;;;5950455;23;20669;-74
2022/11/14 08:45:46;;;;;;;19.92;16.73;;;4.40;99.90;;;;;;5948240;23;20219;-74
2022/11/14 08:48:14;;;;;;;16.48;14.77;;;4.30;99.90;;;;;;5955161;23;20202;-74
2022/11/14 08:50:41;;;;;;;18.40;16.48;;;4.30;99.90;;;;;;5956971;23;20286;-73
2022/11/14 08:53:08;;;;;;;18.63;16.83;;;4.30;99.90;;;;;;5950583;23;20674;-72
2022/11/14 08:55:35;;;;;;;23.85;17.50;;;4.30;99.90;;;;;;5957475;23;20682;-71
2022/11/14 08:58:04;;;;;;;21.30;18.15;;;4.30;99.90;;;;;;5959907;23;20187;-78
2022/11/14 09:11:45;;;;;;;14.23;12.73;;;5.80;99.90;;;;;;6035628;23;20323;-73
2022/11/14 09:14:14;;;;;;;13.23;11.82;;;6.10;99.90;;;;;;6040733;23;20185;-74
2022/11/14 09:16:43;;;;;;;14.57;13.18;;;6.10;99.90;;;;;;6043986;23;20276;-74
2022/11/14 09:19:10;;;;;;;11.85;10.68;;;6.20;99.90;;;;;;6052110;23;20718;-74
2022/11/14 09:21:37;;;;;;;12.60;11.30;;;6.40;99.90;;;;;;6033287;23;20224;-74
2022/11/14 09:24:04;;;;;;;11.65;10.00;;;6.60;99.90;;;;;;6049802;23;20189;-74
2022/11/14 09:26:32;;;;;;;9.68;8.43;;;6.80;99.90;;;;;;6041649;23;20252;-74
2022/11/14 09:28:59;;;;;;;6.13;5.53;;;7.10;99.90;;;;;;6047440;23;20190;-74
2022/11/14 09:31:28;;;;;;;6.97;5.95;;;7.30;99.90;;;;;;6049397;23;20785;-74
2022/11/14 09:33:55;;;;;;;6.90;6.15;;;7.50;99.90;;;;;;6023392;23;20212;-75
2022/11/14 09:36:23;;;;;;;7.15;6.43;;;7.60;99.90;;;;;;6027765;23;20256;-75
2022/11/14 09:38:51;;;;;;;7.25;6.55;;;7.70;99.90;;;;;;6061499;23;20194;-74
2022/11/14 09:41:25;;;;;;;7.40;6.70;;;7.70;99.90;;;;;;6032155;23;20198;-75
2022/11/14 09:44:29;;;;;;;8.32;7.55;;;7.70;99.90;;;;;;6063454;23;20286;-75
2022/11/14 09:47:03;;;;;;;10.77;9.68;;;7.70;99.90;;;;;;6015484;23;20196;-75
2022/11/14 09:49:35;;;;;;;9.40;8.50;;;7.60;99.90;;;;;;6053294;23;20213;-75
2022/11/14 09:52:12;;;;;;;10.75;9.63;;;7.60;99.90;;;;;;6033844;23;20661;-74
2022/11/14 09:54:47;;;;;;;9.48;8.38;;;7.60;99.90;;;;;;6053754;23;20220;-75
2022/11/14 09:57:17;;;;;;;10.68;9.68;;;7.50;99.90;;;;;;6054774;23;20192;-75
2022/11/14 09:59:44;;;;;;;8.65;7.75;;;7.50;99.90;;;;;;6059487;23;20663;-75
2022/11/14 10:02:25;;;;;;;8.77;8.05;;;7.50;99.90;;;;;;6050545;23;20201;-76
2022/11/14 10:05:05;;;;;;;9.23;8.43;;;7.70;99.90;;;;;;6054719;23;20260;-76
2022/11/14 10:07:44;;;;;;;9.88;8.65;;;7.60;99.90;;;;;;6023989;23;20194;-76
2022/11/14 10:10:23;;;;;;;8.60;7.82;;;7.60;99.90;;;;;;6049767;23;20189;-76
2022/11/14 10:13:01;;;;;;;8.38;7.35;;;7.60;99.90;;;;;;6053682;23;20246;-74
2022/11/14 10:15:36;;;;;;;8.30;7.50;;;7.70;99.90;;;;;;6051841;23;20573;-76
2022/11/14 10:18:32;;;;;;;8.85;8.05;;;7.80;99.90;;;;;;6061069;23;20567;-76
2022/11/14 10:21:10;;;;;;;10.00;9.00;;;7.90;99.90;;;;;;6050299;23;20269;-76
2022/11/14 10:23:48;;;;;;;7.93;7.20;;;8.00;99.90;;;;;;6056668;23;20221;-77
2022/11/14 10:26:25;;;;;;;8.88;8.18;;;8.10;99.90;;;;;;6064133;23;20305;-76
2022/11/14 10:29:16;;;;;;;8.10;7.45;;;8.20;99.90;;;;;;6083937;23;20199;-76
2022/11/14 10:31:53;;;;;;;7.25;6.60;;;8.30;99.90;;;;;;6024575;23;20197;-76
2022/11/14 10:34:33;;;;;;;8.52;7.80;;;8.40;99.90;;;;;;6052726;23;20214;-76
2022/11/14 10:37:06;;;;;;;6.30;5.80;;;8.60;99.90;;;;;;6058172;23;20212;-76
2022/11/14 10:39:42;;;;;;;7.07;6.47;;;8.70;99.90;;;;;;6053193;23;20198;-76
2022/11/14 10:42:14;;;;;;;6.65;6.10;;;8.70;99.90;;;;;;6054312;23;20191;-77
2022/11/14 10:44:50;;;;;;;7.32;6.72;;;8.90;99.90;;;;;;6035144;23;20199;-77
2022/11/14 10:47:23;;;;;;;6.30;5.82;;;9.00;99.90;;;;;;6039324;23;20186;-77
2022/11/14 10:49:56;;;;;;;8.15;7.18;;;9.10;99.90;;;;;;6057404;23;20192;-76
2022/11/14 10:52:36;;;;;;;6.93;6.43;;;9.10;99.90;;;;;;6059195;23;20195;-77
2022/11/14 10:55:10;;;;;;;7.28;6.60;;;9.10;99.90;;;;;;6069121;23;20690;-77
2022/11/14 10:57:40;;;;;;;7.35;6.75;;;9.00;99.90;;;;;;6058922;23;20656;-77
2022/11/14 11:00:13;;;;;;;7.45;6.80;;;9.00;99.90;;;;;;6056377;23;20192;-77
2022/11/14 11:02:53;;;;;;;7.15;6.55;;;9.00;99.90;;;;;;6048847;23;20630;-77
2022/11/14 11:05:23;;;;;;;6.53;5.93;;;9.00;99.90;;;;;;6050303;23;20214;-77
2022/11/14 11:13:32;;;;;;;7.88;7.07;;;9.00;99.90;;;;;;6031284;23;20283;-76
2022/11/14 11:16:02;;;;;;;6.50;6.00;;;9.10;99.90;;;;;;6028986;23;20213;-76
2022/11/14 11:18:31;;;;;;;7.00;6.40;;;9.10;99.90;;;;;;6056158;23;20185;-77
2022/11/14 11:21:05;;;;;;;6.80;6.30;;;9.30;99.90;;;;;;6058045;23;20554;-77
2022/11/14 11:23:34;;;;;;;6.20;5.60;;;9.80;99.90;;;;;;6051577;23;20192;-77
2022/11/14 11:26:06;;;;;;;5.20;4.72;;;10.40;99.90;;;;;;6031951;23;20288;-77
2022/11/14 11:28:35;;;;;;;5.00;4.60;;;10.70;99.90;;;;;;6059384;23;20192;-76
2022/11/14 11:31:04;;;;;;;4.22;3.83;;;11.00;99.90;;;;;;6029753;23;20530;-76
2022/11/14 11:33:33;;;;;;;4.70;4.30;;;11.10;99.90;;;;;;6056866;23;20235;-76
2022/11/14 11:36:05;;;;;;;4.63;4.15;;;11.00;99.90;;;;;;6059183;23;20191;-75
2022/11/14 11:38:34;;;;;;;5.15;4.65;;;11.20;99.90;;;;;;6031901;23;20197;-76
2022/11/14 11:41:16;;;;;;;4.13;3.83;;;11.30;99.90;;;;;;6021710;23;21188;-76
2022/11/14 11:43:48;;;;;;;4.78;4.13;;;11.20;99.90;;;;;;6029145;23;20196;-76
2022/11/14 11:46:24;;;;;;;4.20;3.85;;;11.10;99.90;;;;;;6057908;23;20677;-77
2022/11/14 11:49:00;;;;;;;4.35;3.95;;;10.90;99.90;;;;;;6050231;23;20193;-76
2022/11/14 11:51:45;;;;;;;4.30;3.90;;;10.90;99.90;;;;;;6049102;23;20203;-76
2022/11/14 11:54:16;;;;;;;4.10;3.70;;;10.90;99.90;;;;;;6049057;23;20255;-73
2022/11/14 11:56:47;;;;;;;4.20;3.85;;;10.90;99.90;;;;;;6022595;23;20189;-76
2022/11/14 11:59:28;;;;;;;4.00;3.70;;;10.80;99.90;;;;;;6052054;23;20192;-76
2022/11/14 12:01:55;;;;;;;3.95;3.63;;;10.80;99.90;;;;;;6054041;23;20192;-76
2022/11/14 12:04:23;;;;;;;4.13;3.83;;;10.70;99.90;;;;;;6052203;23;20236;-76
2022/11/14 12:06:58;;;;;;;4.50;4.10;;;10.70;99.90;;;;;;6020246;23;20216;-76
2022/11/14 12:09:32;;;;;;;4.60;3.78;;;10.70;99.90;;;;;;6014852;23;20185;-76
2022/11/14 12:12:04;;;;;;;3.50;3.20;;;10.60;99.90;;;;;;6042063;23;20671;-76
2022/11/14 12:14:51;;;;;;;4.10;3.70;;;10.60;99.90;;;;;;6058407;23;20296;-76
2022/11/14 12:18:07;;;;;;;3.40;3.10;;;10.60;99.90;;;;;;6036268;23;20219;-76
2022/11/14 12:20:56;;;;;;;3.17;2.95;;;10.60;99.90;;;;;;6044335;23;20199;-76
2022/11/14 12:24:02;;;;;;;3.80;3.50;;;10.60;99.90;;;;;;6051361;23;20199;-82
2022/11/14 12:26:45;;;;;;;3.40;2.97;;;10.70;99.90;;;;;;6054472;23;20204;-76
2022/11/14 12:29:32;;;;;;;3.13;2.85;;;10.70;99.90;;;;;;6038619;23;20268;-76
2022/11/14 12:32:06;;;;;;;3.08;2.70;;;10.70;99.90;;;;;;6066247;23;20254;-76
2022/11/14 12:34:38;;;;;;;2.20;2.00;;;10.80;99.90;;;;;;6072800;23;20216;-75
2022/11/14 12:37:10;;;;;;;2.50;2.30;;;10.80;99.90;;;;;;6047964;23;20193;-75
2022/11/14 12:39:40;;;;;;;2.97;2.10;;;10.90;99.90;;;;;;6048161;23;20220;-75
2022/11/14 12:42:14;;;;;;;3.00;2.33;;;11.00;99.90;;;;;;6022596;23;20207;-75
2022/11/14 12:44:41;;;;;;;2.78;1.88;;;11.00;99.90;;;;;;6049248;23;20250;-75
2022/11/14 12:47:16;;;;;;;2.00;1.83;;;11.10;99.90;;;;;;6057279;23;20260;-76
2022/11/14 12:50:01;;;;;;;2.10;2.00;;;11.50;99.90;;;;;;6053684;23;20191;-75
2022/11/14 12:52:50;;;;;;;3.10;2.13;;;12.00;99.90;;;;;;6061666;23;20269;-75
2022/11/14 12:55:54;;;;;;;2.03;1.80;;;12.50;99.90;;;;;;6048497;23;20435;-75
2022/11/14 12:58:34;;;;;;;1.93;1.57;;;12.90;99.90;;;;;;5983945;23;20454;-75
2022/11/14 13:01:16;;;;;;;3.00;1.80;;;13.00;99.90;;;;;;6040833;23;21134;-76
2022/11/14 13:03:53;;;;;;;1.70;1.60;;;13.00;99.90;;;;;;5996209;23;20433;-76
2022/11/14 13:06:26;;;;;;;2.03;1.93;;;13.00;99.90;;;;;;6058057;23;20475;-76
2022/11/14 13:09:20;;;;;;;3.70;2.03;;;13.10;99.90;;;;;;6046066;23;20469;-76
2022/11/14 13:23:54;;;;;;;3.53;1.90;;;13.40;99.90;;;;;;6042359;23;20435;-76